Geraldton Greenstone Regional Airport
CYGQ : now visible

Airfield :











YOU CAN JOIN US ON...

 
LOGIN :

Register | Disclaimer

   EN    FR    IT 

 









Legend :    VFR   Marginal VFR   IFR   Intensive IFR   Very Intensive IFR
Visi :
Ceiling :
>= 8 km
>= 3000ft
5 to 8 km
1000 to 3000 ft
1500m to 5 km
500 to 1000 ft
800 to 1500m
200 to 500 ft
< 800m
< 200 ft
Symbols :   Thunderstorms  Fog  Heavy snow  Heavy precipitations  Wind > 20 kt






- Airport Elevation : 1144 ft
- IATA code : YGQ


CYGQ - Geraldton Greenstone Regional

CURRENT METAR :
  • 140800Z 26003KT 220V310 15SM -SN OVC042 M12/M14 A2990 RMK SC8 SLP153

EXPIRED METARs :
  • 140700Z 28003KT 240V300 15SM -SN OVC042 M11/M13 A2989 RMK SC8 SLP150
  • 140600Z 29003KT 260V320 14SM -SN OVC044 M11/M13 A2988 RMK SC8 SLP148

TAF TAF CYGQ
Valid from the 14 at 08:00 until the 14 at 20:00 UTC


140747Z 1408/1420 30007KT P6SM -SN SCT015 OVC040
TEMPO 1408/1412 5SM -SN BKN015 OVC040
FM141200 VRB03KT 4SM -SN OVC015
TEMPO 1412/1418 P6SM -SN BKN025 OVC120
PROB30 1412/1418 21/2SM -SN
FM141800 22010G20KT 1SM -SN VV007 RMK NXT FCST BY 141400Z



MET'MAP, your aeronautical weather chart ! - Copyright ORBIFLY December 2007 - Disclaimer

ORBIFLY MET'MAP TEAM :

Programming & Development : Alexandra Zaïnal
Concept & Development : Baudouin d'Aumeries
Co-Development & Prog : Marc-Olivier Méhu
Technical & hardware support : Manuel Goepfert

Contact : metmap@orbifly.com




SOURCES & CREDITS :

   NOAA       Earth
Advisory